sensor_id;sensor_type;location;lat;lon;timestamp;P1;durP1;ratioP1;P2;durP2;ratioP2
25503;SDS011;13410;52.114;5.718;2023-09-19T00:00:20;9.63;;;2.80;;
25503;SDS011;13410;52.114;5.718;2023-09-19T00:02:52;8.27;;;2.28;;
25503;SDS011;13410;52.114;5.718;2023-09-19T00:05:24;11.32;;;2.25;;
25503;SDS011;13410;52.114;5.718;2023-09-19T00:07:52;8.88;;;2.30;;
25503;SDS011;13410;52.114;5.718;2023-09-19T00:10:20;9.43;;;2.40;;
25503;SDS011;13410;52.114;5.718;2023-09-19T00:12:47;5.70;;;1.80;;
25503;SDS011;13410;52.114;5.718;2023-09-19T00:15:13;6.88;;;1.75;;
25503;SDS011;13410;52.114;5.718;2023-09-19T00:17:42;11.10;;;2.00;;
25503;SDS011;13410;52.114;5.718;2023-09-19T00:20:08;12.43;;;2.13;;
25503;SDS011;13410;52.114;5.718;2023-09-19T00:22:41;9.20;;;2.13;;
25503;SDS011;13410;52.114;5.718;2023-09-19T00:25:09;8.35;;;2.03;;
25503;SDS011;13410;52.114;5.718;2023-09-19T00:27:36;6.65;;;2.10;;
25503;SDS011;13410;52.114;5.718;2023-09-19T00:30:06;9.02;;;2.20;;
25503;SDS011;13410;52.114;5.718;2023-09-19T00:32:39;10.00;;;1.95;;
25503;SDS011;13410;52.114;5.718;2023-09-19T00:35:05;8.45;;;1.90;;
25503;SDS011;13410;52.114;5.718;2023-09-19T00:37:34;6.50;;;1.80;;
25503;SDS011;13410;52.114;5.718;2023-09-19T00:39:59;9.65;;;2.00;;
25503;SDS011;13410;52.114;5.718;2023-09-19T00:42:25;4.85;;;2.03;;
25503;SDS011;13410;52.114;5.718;2023-09-19T00:44:50;5.80;;;1.77;;
25503;SDS011;13410;52.114;5.718;2023-09-19T00:47:17;7.32;;;2.35;;
25503;SDS011;13410;52.114;5.718;2023-09-19T00:49:44;10.05;;;2.15;;
25503;SDS011;13410;52.114;5.718;2023-09-19T00:52:15;8.23;;;2.15;;
25503;SDS011;13410;52.114;5.718;2023-09-19T00:54:45;6.00;;;1.75;;
25503;SDS011;13410;52.114;5.718;2023-09-19T00:57:12;9.25;;;2.22;;
25503;SDS011;13410;52.114;5.718;2023-09-19T00:59:39;7.00;;;2.40;;
25503;SDS011;13410;52.114;5.718;2023-09-19T01:02:07;5.07;;;1.88;;
25503;SDS011;13410;52.114;5.718;2023-09-19T01:04:33;11.43;;;2.17;;
25503;SDS011;13410;52.114;5.718;2023-09-19T01:06:59;6.63;;;2.08;;
25503;SDS011;13410;52.114;5.718;2023-09-19T01:09:24;10.93;;;2.00;;
25503;SDS011;13410;52.114;5.718;2023-09-19T01:11:51;7.15;;;2.40;;
25503;SDS011;13410;52.114;5.718;2023-09-19T01:17:23;6.78;;;2.20;;
25503;SDS011;13410;52.114;5.718;2023-09-19T01:20:01;8.63;;;2.20;;
25503;SDS011;13410;52.114;5.718;2023-09-19T01:30:33;9.38;;;2.90;;
25503;SDS011;13410;52.114;5.718;2023-09-19T01:33:04;10.80;;;2.65;;
25503;SDS011;13410;52.114;5.718;2023-09-19T01:35:31;7.95;;;2.50;;
25503;SDS011;13410;52.114;5.718;2023-09-19T01:37:57;14.60;;;2.58;;
25503;SDS011;13410;52.114;5.718;2023-09-19T01:40:24;10.65;;;2.90;;
25503;SDS011;13410;52.114;5.718;2023-09-19T01:48:11;11.93;;;2.72;;
25503;SDS011;13410;52.114;5.718;2023-09-19T01:50:47;8.32;;;2.92;;
25503;SDS011;13410;52.114;5.718;2023-09-19T01:53:25;10.73;;;2.70;;
25503;SDS011;13410;52.114;5.718;2023-09-19T01:55:55;18.27;;;3.30;;
25503;SDS011;13410;52.114;5.718;2023-09-19T02:01:11;12.85;;;2.80;;
25503;SDS011;13410;52.114;5.718;2023-09-19T02:03:44;11.70;;;2.55;;
25503;SDS011;13410;52.114;5.718;2023-09-19T02:06:15;12.80;;;2.42;;
25503;SDS011;13410;52.114;5.718;2023-09-19T02:08:42;12.13;;;2.88;;
25503;SDS011;13410;52.114;5.718;2023-09-19T02:11:08;13.93;;;3.00;;
25503;SDS011;13410;52.114;5.718;2023-09-19T02:13:33;16.58;;;3.10;;
25503;SDS011;13410;52.114;5.718;2023-09-19T02:15:59;11.95;;;2.58;;
25503;SDS011;13410;52.114;5.718;2023-09-19T02:18:25;7.90;;;2.40;;
25503;SDS011;13410;52.114;5.718;2023-09-19T02:20:53;12.43;;;2.70;;
25503;SDS011;13410;52.114;5.718;2023-09-19T02:23:19;13.95;;;3.10;;
25503;SDS011;13410;52.114;5.718;2023-09-19T02:25:54;16.10;;;3.10;;
25503;SDS011;13410;52.114;5.718;2023-09-19T02:28:20;13.05;;;2.60;;
25503;SDS011;13410;52.114;5.718;2023-09-19T02:30:49;10.77;;;2.60;;
25503;SDS011;13410;52.114;5.718;2023-09-19T02:33:15;9.52;;;2.70;;
25503;SDS011;13410;52.114;5.718;2023-09-19T02:35:42;15.52;;;2.88;;
25503;SDS011;13410;52.114;5.718;2023-09-19T02:38:07;11.60;;;2.58;;
25503;SDS011;13410;52.114;5.718;2023-09-19T02:40:33;11.98;;;2.58;;
25503;SDS011;13410;52.114;5.718;2023-09-19T02:43:00;13.75;;;2.80;;
25503;SDS011;13410;52.114;5.718;2023-09-19T02:45:27;8.90;;;2.42;;
25503;SDS011;13410;52.114;5.718;2023-09-19T02:47:52;11.73;;;2.67;;
25503;SDS011;13410;52.114;5.718;2023-09-19T02:50:18;9.00;;;2.47;;
25503;SDS011;13410;52.114;5.718;2023-09-19T02:52:44;12.20;;;2.58;;
25503;SDS011;13410;52.114;5.718;2023-09-19T02:55:13;12.18;;;2.80;;
25503;SDS011;13410;52.114;5.718;2023-09-19T02:58:03;11.15;;;2.80;;
25503;SDS011;13410;52.114;5.718;2023-09-19T03:00:30;12.63;;;2.90;;
25503;SDS011;13410;52.114;5.718;2023-09-19T03:02:56;11.50;;;2.33;;
25503;SDS011;13410;52.114;5.718;2023-09-19T03:05:22;15.32;;;2.63;;
25503;SDS011;13410;52.114;5.718;2023-09-19T03:07:48;14.55;;;2.65;;
25503;SDS011;13410;52.114;5.718;2023-09-19T03:10:18;10.73;;;2.53;;
25503;SDS011;13410;52.114;5.718;2023-09-19T03:12:44;13.35;;;2.83;;
25503;SDS011;13410;52.114;5.718;2023-09-19T03:15:09;15.00;;;3.28;;
25503;SDS011;13410;52.114;5.718;2023-09-19T03:17:35;13.10;;;2.35;;
25503;SDS011;13410;52.114;5.718;2023-09-19T03:20:02;16.98;;;2.95;;
25503;SDS011;13410;52.114;5.718;2023-09-19T03:22:29;12.55;;;2.30;;
25503;SDS011;13410;52.114;5.718;2023-09-19T03:24:54;14.77;;;2.60;;
25503;SDS011;13410;52.114;5.718;2023-09-19T03:27:20;13.30;;;2.70;;
25503;SDS011;13410;52.114;5.718;2023-09-19T03:29:46;10.07;;;2.40;;
25503;SDS011;13410;52.114;5.718;2023-09-19T03:32:12;16.25;;;2.58;;
25503;SDS011;13410;52.114;5.718;2023-09-19T03:34:38;11.30;;;2.38;;
25503;SDS011;13410;52.114;5.718;2023-09-19T03:37:08;12.10;;;2.30;;
25503;SDS011;13410;52.114;5.718;2023-09-19T03:39:34;12.02;;;2.30;;
25503;SDS011;13410;52.114;5.718;2023-09-19T03:42:00;13.07;;;2.75;;
25503;SDS011;13410;52.114;5.718;2023-09-19T03:44:29;11.85;;;2.30;;
25503;SDS011;13410;52.114;5.718;2023-09-19T03:46:55;10.07;;;2.17;;
25503;SDS011;13410;52.114;5.718;2023-09-19T03:49:22;16.90;;;2.83;;
25503;SDS011;13410;52.114;5.718;2023-09-19T03:51:48;11.95;;;2.22;;
25503;SDS011;13410;52.114;5.718;2023-09-19T03:54:14;13.65;;;2.58;;
25503;SDS011;13410;52.114;5.718;2023-09-19T03:56:39;14.15;;;2.70;;
25503;SDS011;13410;52.114;5.718;2023-09-19T03:59:05;12.60;;;2.47;;
25503;SDS011;13410;52.114;5.718;2023-09-19T04:01:30;16.40;;;2.95;;
25503;SDS011;13410;52.114;5.718;2023-09-19T04:03:58;13.07;;;3.17;;
25503;SDS011;13410;52.114;5.718;2023-09-19T04:06:32;13.35;;;2.63;;
25503;SDS011;13410;52.114;5.718;2023-09-19T04:08:59;10.35;;;2.60;;
25503;SDS011;13410;52.114;5.718;2023-09-19T04:11:25;13.23;;;2.65;;
25503;SDS011;13410;52.114;5.718;2023-09-19T04:13:51;10.68;;;2.45;;
25503;SDS011;13410;52.114;5.718;2023-09-19T04:16:16;11.10;;;2.45;;
25503;SDS011;13410;52.114;5.718;2023-09-19T04:18:42;12.30;;;2.20;;
25503;SDS011;13410;52.114;5.718;2023-09-19T04:21:08;12.13;;;2.10;;
25503;SDS011;13410;52.114;5.718;2023-09-19T04:23:34;11.75;;;2.20;;
25503;SDS011;13410;52.114;5.718;2023-09-19T04:25:59;12.82;;;2.35;;
25503;SDS011;13410;52.114;5.718;2023-09-19T04:28:25;12.45;;;2.60;;
25503;SDS011;13410;52.114;5.718;2023-09-19T04:30:52;12.27;;;2.50;;
25503;SDS011;13410;52.114;5.718;2023-09-19T04:33:18;9.95;;;2.25;;
25503;SDS011;13410;52.114;5.718;2023-09-19T04:35:43;11.25;;;2.35;;
25503;SDS011;13410;52.114;5.718;2023-09-19T04:38:09;15.25;;;2.30;;
25503;SDS011;13410;52.114;5.718;2023-09-19T04:40:35;13.50;;;2.10;;
25503;SDS011;13410;52.114;5.718;2023-09-19T04:43:00;12.63;;;2.33;;
25503;SDS011;13410;52.114;5.718;2023-09-19T04:45:26;17.90;;;2.47;;
25503;SDS011;13410;52.114;5.718;2023-09-19T04:47:53;13.68;;;2.17;;
25503;SDS011;13410;52.114;5.718;2023-09-19T04:50:19;11.23;;;2.17;;
25503;SDS011;13410;52.114;5.718;2023-09-19T04:52:48;13.43;;;2.53;;
25503;SDS011;13410;52.114;5.718;2023-09-19T04:55:15;8.93;;;2.20;;
25503;SDS011;13410;52.114;5.718;2023-09-19T04:57:43;7.88;;;1.85;;
25503;SDS011;13410;52.114;5.718;2023-09-19T05:00:10;13.38;;;2.40;;
25503;SDS011;13410;52.114;5.718;2023-09-19T05:02:40;12.10;;;1.97;;
25503;SDS011;13410;52.114;5.718;2023-09-19T05:05:07;7.63;;;2.15;;
25503;SDS011;13410;52.114;5.718;2023-09-19T05:07:33;11.93;;;2.50;;
25503;SDS011;13410;52.114;5.718;2023-09-19T05:09:59;9.52;;;2.35;;
25503;SDS011;13410;52.114;5.718;2023-09-19T05:12:28;10.63;;;2.22;;
25503;SDS011;13410;52.114;5.718;2023-09-19T05:14:54;11.57;;;2.40;;
25503;SDS011;13410;52.114;5.718;2023-09-19T05:17:20;11.90;;;2.00;;
25503;SDS011;13410;52.114;5.718;2023-09-19T05:19:46;9.10;;;2.40;;
25503;SDS011;13410;52.114;5.718;2023-09-19T05:22:11;11.77;;;2.33;;
25503;SDS011;13410;52.114;5.718;2023-09-19T05:24:37;11.95;;;2.25;;
25503;SDS011;13410;52.114;5.718;2023-09-19T05:27:04;13.00;;;2.40;;
25503;SDS011;13410;52.114;5.718;2023-09-19T05:29:29;14.63;;;2.28;;
25503;SDS011;13410;52.114;5.718;2023-09-19T05:31:55;11.05;;;2.15;;
25503;SDS011;13410;52.114;5.718;2023-09-19T05:34:20;10.07;;;2.28;;
25503;SDS011;13410;52.114;5.718;2023-09-19T05:36:46;15.68;;;2.30;;
25503;SDS011;13410;52.114;5.718;2023-09-19T05:39:14;11.68;;;2.30;;
25503;SDS011;13410;52.114;5.718;2023-09-19T05:41:39;10.50;;;2.33;;
25503;SDS011;13410;52.114;5.718;2023-09-19T05:44:05;11.77;;;2.30;;
25503;SDS011;13410;52.114;5.718;2023-09-19T05:46:32;11.32;;;2.40;;
25503;SDS011;13410;52.114;5.718;2023-09-19T05:48:57;12.35;;;2.60;;
25503;SDS011;13410;52.114;5.718;2023-09-19T05:51:23;12.38;;;2.33;;
25503;SDS011;13410;52.114;5.718;2023-09-19T05:53:49;10.90;;;1.98;;
25503;SDS011;13410;52.114;5.718;2023-09-19T05:56:14;11.95;;;2.10;;
25503;SDS011;13410;52.114;5.718;2023-09-19T05:58:40;13.77;;;2.70;;
25503;SDS011;13410;52.114;5.718;2023-09-19T06:01:09;12.75;;;2.60;;
25503;SDS011;13410;52.114;5.718;2023-09-19T06:03:35;9.80;;;2.08;;
25503;SDS011;13410;52.114;5.718;2023-09-19T06:06:01;9.48;;;2.10;;
25503;SDS011;13410;52.114;5.718;2023-09-19T06:08:27;10.70;;;2.08;;
25503;SDS011;13410;52.114;5.718;2023-09-19T06:10:53;11.02;;;2.35;;
25503;SDS011;13410;52.114;5.718;2023-09-19T06:13:19;10.25;;;2.63;;
25503;SDS011;13410;52.114;5.718;2023-09-19T06:15:46;12.38;;;2.22;;
25503;SDS011;13410;52.114;5.718;2023-09-19T06:18:12;9.82;;;1.98;;
25503;SDS011;13410;52.114;5.718;2023-09-19T06:20:45;8.80;;;2.08;;
25503;SDS011;13410;52.114;5.718;2023-09-19T06:23:13;11.60;;;2.08;;
25503;SDS011;13410;52.114;5.718;2023-09-19T06:25:39;12.85;;;2.30;;
25503;SDS011;13410;52.114;5.718;2023-09-19T06:28:05;11.77;;;2.30;;
25503;SDS011;13410;52.114;5.718;2023-09-19T06:30:33;13.02;;;2.08;;
25503;SDS011;13410;52.114;5.718;2023-09-19T06:33:01;12.75;;;2.30;;
25503;SDS011;13410;52.114;5.718;2023-09-19T06:35:29;7.35;;;1.73;;
25503;SDS011;13410;52.114;5.718;2023-09-19T06:38:03;8.85;;;1.92;;
25503;SDS011;13410;52.114;5.718;2023-09-19T06:40:29;8.23;;;2.08;;
25503;SDS011;13410;52.114;5.718;2023-09-19T06:42:56;10.98;;;1.95;;
25503;SDS011;13410;52.114;5.718;2023-09-19T06:45:21;8.73;;;2.10;;
25503;SDS011;13410;52.114;5.718;2023-09-19T06:47:48;9.10;;;2.22;;
25503;SDS011;13410;52.114;5.718;2023-09-19T06:50:15;13.32;;;2.30;;
25503;SDS011;13410;52.114;5.718;2023-09-19T06:52:45;11.40;;;1.85;;
25503;SDS011;13410;52.114;5.718;2023-09-19T06:55:14;10.98;;;2.15;;
25503;SDS011;13410;52.114;5.718;2023-09-19T06:57:41;8.95;;;2.13;;
25503;SDS011;13410;52.114;5.718;2023-09-19T07:00:08;15.63;;;2.30;;
25503;SDS011;13410;52.114;5.718;2023-09-19T07:02:40;10.88;;;2.20;;
25503;SDS011;13410;52.114;5.718;2023-09-19T07:05:06;14.73;;;2.22;;
25503;SDS011;13410;52.114;5.718;2023-09-19T07:07:32;17.73;;;2.30;;
25503;SDS011;13410;52.114;5.718;2023-09-19T07:10:00;16.80;;;2.10;;
25503;SDS011;13410;52.114;5.718;2023-09-19T07:12:33;10.65;;;2.28;;
25503;SDS011;13410;52.114;5.718;2023-09-19T07:15:00;9.68;;;2.15;;
25503;SDS011;13410;52.114;5.718;2023-09-19T07:17:26;8.85;;;2.45;;
25503;SDS011;13410;52.114;5.718;2023-09-19T07:19:52;13.70;;;2.45;;
25503;SDS011;13410;52.114;5.718;2023-09-19T07:22:18;14.50;;;2.47;;
25503;SDS011;13410;52.114;5.718;2023-09-19T07:24:43;12.43;;;2.40;;
25503;SDS011;13410;52.114;5.718;2023-09-19T07:27:10;12.00;;;2.25;;
25503;SDS011;13410;52.114;5.718;2023-09-19T07:29:35;10.23;;;2.20;;
25503;SDS011;13410;52.114;5.718;2023-09-19T07:32:02;13.82;;;2.60;;
25503;SDS011;13410;52.114;5.718;2023-09-19T07:34:28;12.63;;;2.60;;
25503;SDS011;13410;52.114;5.718;2023-09-19T07:36:54;11.82;;;2.25;;
25503;SDS011;13410;52.114;5.718;2023-09-19T07:39:22;12.30;;;2.30;;
25503;SDS011;13410;52.114;5.718;2023-09-19T07:41:47;8.20;;;2.20;;
25503;SDS011;13410;52.114;5.718;2023-09-19T07:44:14;8.57;;;1.88;;
25503;SDS011;13410;52.114;5.718;2023-09-19T07:46:40;10.63;;;2.33;;
25503;SDS011;13410;52.114;5.718;2023-09-19T07:49:05;11.18;;;2.22;;
25503;SDS011;13410;52.114;5.718;2023-09-19T07:51:31;11.13;;;2.50;;
25503;SDS011;13410;52.114;5.718;2023-09-19T07:53:58;10.57;;;2.20;;
25503;SDS011;13410;52.114;5.718;2023-09-19T07:56:23;12.88;;;2.00;;
25503;SDS011;13410;52.114;5.718;2023-09-19T07:58:51;10.07;;;2.00;;
25503;SDS011;13410;52.114;5.718;2023-09-19T08:01:17;12.07;;;2.30;;
25503;SDS011;13410;52.114;5.718;2023-09-19T08:03:42;12.45;;;2.35;;
25503;SDS011;13410;52.114;5.718;2023-09-19T08:06:09;12.30;;;2.30;;
25503;SDS011;13410;52.114;5.718;2023-09-19T08:08:35;8.90;;;1.95;;
25503;SDS011;13410;52.114;5.718;2023-09-19T08:11:04;10.10;;;2.08;;
25503;SDS011;13410;52.114;5.718;2023-09-19T08:13:38;12.63;;;2.13;;
25503;SDS011;13410;52.114;5.718;2023-09-19T08:16:10;18.23;;;2.47;;
25503;SDS011;13410;52.114;5.718;2023-09-19T08:18:36;10.60;;;2.15;;
25503;SDS011;13410;52.114;5.718;2023-09-19T08:21:05;13.07;;;2.90;;
25503;SDS011;13410;52.114;5.718;2023-09-19T08:23:39;10.82;;;2.40;;
25503;SDS011;13410;52.114;5.718;2023-09-19T08:26:05;14.52;;;2.10;;
25503;SDS011;13410;52.114;5.718;2023-09-19T08:28:34;10.93;;;2.15;;
25503;SDS011;13410;52.114;5.718;2023-09-19T08:31:03;12.90;;;2.70;;
25503;SDS011;13410;52.114;5.718;2023-09-19T08:33:31;12.60;;;2.55;;
25503;SDS011;13410;52.114;5.718;2023-09-19T08:35:57;11.63;;;2.13;;
25503;SDS011;13410;52.114;5.718;2023-09-19T08:38:22;12.70;;;2.65;;
25503;SDS011;13410;52.114;5.718;2023-09-19T08:40:48;11.77;;;2.42;;
25503;SDS011;13410;52.114;5.718;2023-09-19T08:43:14;14.48;;;2.30;;
25503;SDS011;13410;52.114;5.718;2023-09-19T08:45:40;14.90;;;2.70;;
25503;SDS011;13410;52.114;5.718;2023-09-19T08:51:03;10.95;;;2.17;;
25503;SDS011;13410;52.114;5.718;2023-09-19T08:53:41;12.25;;;2.30;;
25503;SDS011;13410;52.114;5.718;2023-09-19T08:56:14;15.93;;;2.63;;
25503;SDS011;13410;52.114;5.718;2023-09-19T09:01:32;14.40;;;2.70;;
25503;SDS011;13410;52.114;5.718;2023-09-19T09:03:58;9.15;;;2.20;;
25503;SDS011;13410;52.114;5.718;2023-09-19T09:06:26;13.27;;;2.42;;
25503;SDS011;13410;52.114;5.718;2023-09-19T09:08:53;12.45;;;2.28;;
25503;SDS011;13410;52.114;5.718;2023-09-19T09:11:19;14.38;;;2.55;;
25503;SDS011;13410;52.114;5.718;2023-09-19T09:13:45;10.25;;;2.05;;
25503;SDS011;13410;52.114;5.718;2023-09-19T09:16:12;9.73;;;2.03;;
25503;SDS011;13410;52.114;5.718;2023-09-19T09:18:42;13.27;;;2.83;;
25503;SDS011;13410;52.114;5.718;2023-09-19T09:21:10;14.23;;;2.53;;
25503;SDS011;13410;52.114;5.718;2023-09-19T09:23:36;9.43;;;2.20;;
25503;SDS011;13410;52.114;5.718;2023-09-19T09:26:02;9.90;;;2.30;;
25503;SDS011;13410;52.114;5.718;2023-09-19T09:28:29;11.02;;;2.40;;
25503;SDS011;13410;52.114;5.718;2023-09-19T09:33:24;7.00;;;2.03;;
25503;SDS011;13410;52.114;5.718;2023-09-19T09:35:51;10.02;;;2.60;;
25503;SDS011;13410;52.114;5.718;2023-09-19T09:38:26;9.73;;;2.17;;
25503;SDS011;13410;52.114;5.718;2023-09-19T09:40:53;8.77;;;2.10;;
25503;SDS011;13410;52.114;5.718;2023-09-19T09:43:41;12.07;;;2.00;;
25503;SDS011;13410;52.114;5.718;2023-09-19T09:46:17;12.32;;;2.03;;
25503;SDS011;13410;52.114;5.718;2023-09-19T09:49:02;9.00;;;2.00;;
25503;SDS011;13410;52.114;5.718;2023-09-19T09:51:50;9.02;;;1.92;;
25503;SDS011;13410;52.114;5.718;2023-09-19T09:54:24;6.97;;;2.00;;
25503;SDS011;13410;52.114;5.718;2023-09-19T09:57:00;14.00;;;2.40;;
25503;SDS011;13410;52.114;5.718;2023-09-19T09:59:54;10.52;;;2.10;;
25503;SDS011;13410;52.114;5.718;2023-09-19T10:02:27;8.38;;;2.15;;
25503;SDS011;13410;52.114;5.718;2023-09-19T10:04:57;12.43;;;2.15;;
25503;SDS011;13410;52.114;5.718;2023-09-19T10:07:30;12.95;;;2.45;;
25503;SDS011;13410;52.114;5.718;2023-09-19T10:10:33;10.55;;;2.30;;
25503;SDS011;13410;52.114;5.718;2023-09-19T10:13:09;10.82;;;2.17;;
25503;SDS011;13410;52.114;5.718;2023-09-19T10:15:49;13.77;;;2.20;;
25503;SDS011;13410;52.114;5.718;2023-09-19T10:18:22;11.32;;;2.20;;
25503;SDS011;13410;52.114;5.718;2023-09-19T10:20:48;9.30;;;2.30;;
25503;SDS011;13410;52.114;5.718;2023-09-19T10:23:16;8.60;;;2.10;;
25503;SDS011;13410;52.114;5.718;2023-09-19T10:25:48;13.13;;;1.95;;
25503;SDS011;13410;52.114;5.718;2023-09-19T10:28:14;9.85;;;2.10;;
25503;SDS011;13410;52.114;5.718;2023-09-19T10:30:46;9.23;;;2.20;;
25503;SDS011;13410;52.114;5.718;2023-09-19T10:33:16;8.20;;;1.90;;
25503;SDS011;13410;52.114;5.718;2023-09-19T10:35:44;7.20;;;1.98;;
25503;SDS011;13410;52.114;5.718;2023-09-19T10:38:11;9.20;;;2.00;;
25503;SDS011;13410;52.114;5.718;2023-09-19T10:40:38;11.57;;;2.13;;
25503;SDS011;13410;52.114;5.718;2023-09-19T10:43:20;10.15;;;2.28;;
25503;SDS011;13410;52.114;5.718;2023-09-19T10:45:51;11.10;;;2.03;;
25503;SDS011;13410;52.114;5.718;2023-09-19T10:48:18;9.88;;;2.05;;
25503;SDS011;13410;52.114;5.718;2023-09-19T10:50:48;7.07;;;1.80;;
25503;SDS011;13410;52.114;5.718;2023-09-19T10:53:25;6.72;;;1.77;;
25503;SDS011;13410;52.114;5.718;2023-09-19T10:55:54;9.05;;;1.70;;
25503;SDS011;13410;52.114;5.718;2023-09-19T10:58:26;11.15;;;2.33;;
25503;SDS011;13410;52.114;5.718;2023-09-19T11:00:54;11.13;;;2.17;;
25503;SDS011;13410;52.114;5.718;2023-09-19T11:03:22;9.57;;;2.25;;
25503;SDS011;13410;52.114;5.718;2023-09-19T11:30:50;5.75;;;1.70;;
25503;SDS011;13410;52.114;5.718;2023-09-19T11:33:24;7.75;;;1.70;;
25503;SDS011;13410;52.114;5.718;2023-09-19T11:36:06;6.13;;;1.73;;
25503;SDS011;13410;52.114;5.718;2023-09-19T11:41:55;8.48;;;1.75;;
25503;SDS011;13410;52.114;5.718;2023-09-19T11:46:32;6.30;;;1.65;;
25503;SDS011;13410;52.114;5.718;2023-09-19T11:49:08;6.85;;;1.77;;
25503;SDS011;13410;52.114;5.718;2023-09-19T11:51:40;6.80;;;1.58;;
25503;SDS011;13410;52.114;5.718;2023-09-19T11:54:11;8.77;;;1.42;;
25503;SDS011;13410;52.114;5.718;2023-09-19T11:56:44;5.05;;;1.40;;
25503;SDS011;13410;52.114;5.718;2023-09-19T11:59:10;5.93;;;1.30;;
25503;SDS011;13410;52.114;5.718;2023-09-19T12:01:37;6.70;;;1.65;;
25503;SDS011;13410;52.114;5.718;2023-09-19T12:04:11;10.25;;;1.85;;
25503;SDS011;13410;52.114;5.718;2023-09-19T12:06:37;8.30;;;1.80;;
25503;SDS011;13410;52.114;5.718;2023-09-19T12:09:12;9.32;;;1.58;;
25503;SDS011;13410;52.114;5.718;2023-09-19T12:11:42;7.15;;;1.67;;
25503;SDS011;13410;52.114;5.718;2023-09-19T12:14:11;4.28;;;1.20;;
25503;SDS011;13410;52.114;5.718;2023-09-19T12:16:50;4.65;;;1.20;;
25503;SDS011;13410;52.114;5.718;2023-09-19T12:19:21;6.95;;;1.40;;
25503;SDS011;13410;52.114;5.718;2023-09-19T12:22:00;7.25;;;1.20;;
25503;SDS011;13410;52.114;5.718;2023-09-19T12:24:31;5.22;;;1.52;;
25503;SDS011;13410;52.114;5.718;2023-09-19T12:27:05;5.97;;;1.40;;
25503;SDS011;13410;52.114;5.718;2023-09-19T12:29:32;4.40;;;1.30;;
25503;SDS011;13410;52.114;5.718;2023-09-19T12:32:34;6.15;;;1.10;;
25503;SDS011;13410;52.114;5.718;2023-09-19T12:35:01;4.88;;;0.93;;
25503;SDS011;13410;52.114;5.718;2023-09-19T12:37:32;6.55;;;1.40;;
25503;SDS011;13410;52.114;5.718;2023-09-19T12:40:07;4.65;;;1.15;;
25503;SDS011;13410;52.114;5.718;2023-09-19T12:42:47;4.57;;;1.17;;
25503;SDS011;13410;52.114;5.718;2023-09-19T12:45:13;5.28;;;0.88;;
25503;SDS011;13410;52.114;5.718;2023-09-19T12:53:31;5.43;;;1.00;;
25503;SDS011;13410;52.114;5.718;2023-09-19T12:55:59;3.83;;;1.00;;
25503;SDS011;13410;52.114;5.718;2023-09-19T12:58:25;6.90;;;1.30;;
25503;SDS011;13410;52.114;5.718;2023-09-19T13:00:51;6.40;;;1.20;;
25503;SDS011;13410;52.114;5.718;2023-09-19T13:05:55;5.30;;;1.05;;
25503;SDS011;13410;52.114;5.718;2023-09-19T13:08:30;4.43;;;0.90;;
25503;SDS011;13410;52.114;5.718;2023-09-19T13:11:13;5.10;;;1.13;;
25503;SDS011;13410;52.114;5.718;2023-09-19T13:13:51;3.47;;;1.20;;
25503;SDS011;13410;52.114;5.718;2023-09-19T13:16:57;4.28;;;0.80;;
25503;SDS011;13410;52.114;5.718;2023-09-19T13:19:41;4.28;;;0.90;;
25503;SDS011;13410;52.114;5.718;2023-09-19T13:25:08;4.63;;;0.80;;
25503;SDS011;13410;52.114;5.718;2023-09-19T13:27:47;4.95;;;0.90;;
25503;SDS011;13410;52.114;5.718;2023-09-19T13:30:16;4.60;;;1.10;;
25503;SDS011;13410;52.114;5.718;2023-09-19T13:32:43;4.65;;;1.05;;
25503;SDS011;13410;52.114;5.718;2023-09-19T13:35:09;7.85;;;1.02;;
25503;SDS011;13410;52.114;5.718;2023-09-19T13:37:38;5.78;;;1.10;;
25503;SDS011;13410;52.114;5.718;2023-09-19T13:40:09;8.85;;;1.10;;
25503;SDS011;13410;52.114;5.718;2023-09-19T13:42:36;4.97;;;1.00;;
25503;SDS011;13410;52.114;5.718;2023-09-19T13:45:03;6.63;;;1.15;;
25503;SDS011;13410;52.114;5.718;2023-09-19T13:47:32;5.50;;;1.05;;
25503;SDS011;13410;52.114;5.718;2023-09-19T13:50:02;5.28;;;1.00;;
25503;SDS011;13410;52.114;5.718;2023-09-19T13:52:39;6.50;;;1.00;;
25503;SDS011;13410;52.114;5.718;2023-09-19T13:55:05;2.95;;;0.85;;
25503;SDS011;13410;52.114;5.718;2023-09-19T13:57:31;3.53;;;1.02;;
25503;SDS011;13410;52.114;5.718;2023-09-19T13:59:58;7.28;;;1.10;;
25503;SDS011;13410;52.114;5.718;2023-09-19T14:02:24;3.42;;;1.20;;
25503;SDS011;13410;52.114;5.718;2023-09-19T14:04:50;4.60;;;1.00;;
25503;SDS011;13410;52.114;5.718;2023-09-19T14:07:18;3.65;;;0.82;;
25503;SDS011;13410;52.114;5.718;2023-09-19T14:09:45;3.00;;;0.90;;
25503;SDS011;13410;52.114;5.718;2023-09-19T14:12:11;3.10;;;0.90;;
25503;SDS011;13410;52.114;5.718;2023-09-19T14:14:37;5.75;;;1.00;;
25503;SDS011;13410;52.114;5.718;2023-09-19T14:17:08;5.13;;;0.88;;
25503;SDS011;13410;52.114;5.718;2023-09-19T14:19:34;7.93;;;1.00;;
25503;SDS011;13410;52.114;5.718;2023-09-19T14:22:01;3.72;;;0.70;;
25503;SDS011;13410;52.114;5.718;2023-09-19T14:24:32;1.85;;;0.75;;
25503;SDS011;13410;52.114;5.718;2023-09-19T14:26:58;5.47;;;0.95;;
25503;SDS011;13410;52.114;5.718;2023-09-19T14:29:24;3.60;;;0.98;;
25503;SDS011;13410;52.114;5.718;2023-09-19T14:31:50;8.48;;;1.17;;
25503;SDS011;13410;52.114;5.718;2023-09-19T14:34:16;4.30;;;1.13;;
25503;SDS011;13410;52.114;5.718;2023-09-19T14:36:42;2.92;;;1.00;;
25503;SDS011;13410;52.114;5.718;2023-09-19T14:39:08;5.05;;;1.20;;
25503;SDS011;13410;52.114;5.718;2023-09-19T14:41:34;4.65;;;1.10;;
25503;SDS011;13410;52.114;5.718;2023-09-19T14:44:01;6.53;;;1.25;;
25503;SDS011;13410;52.114;5.718;2023-09-19T14:46:27;8.18;;;1.05;;
25503;SDS011;13410;52.114;5.718;2023-09-19T14:48:53;4.40;;;1.02;;
25503;SDS011;13410;52.114;5.718;2023-09-19T14:51:20;5.60;;;1.08;;
25503;SDS011;13410;52.114;5.718;2023-09-19T14:53:46;7.38;;;1.30;;
25503;SDS011;13410;52.114;5.718;2023-09-19T14:56:12;7.55;;;1.20;;
25503;SDS011;13410;52.114;5.718;2023-09-19T14:58:40;6.20;;;1.05;;
25503;SDS011;13410;52.114;5.718;2023-09-19T15:01:07;6.47;;;1.25;;
25503;SDS011;13410;52.114;5.718;2023-09-19T15:03:35;3.90;;;1.58;;
25503;SDS011;13410;52.114;5.718;2023-09-19T15:06:02;6.82;;;1.42;;
25503;SDS011;13410;52.114;5.718;2023-09-19T15:08:29;7.18;;;1.38;;
25503;SDS011;13410;52.114;5.718;2023-09-19T15:10:55;5.10;;;1.27;;
25503;SDS011;13410;52.114;5.718;2023-09-19T15:13:23;4.05;;;1.27;;
25503;SDS011;13410;52.114;5.718;2023-09-19T15:15:54;6.28;;;1.25;;
25503;SDS011;13410;52.114;5.718;2023-09-19T15:20:49;4.90;;;1.40;;
25503;SDS011;13410;52.114;5.718;2023-09-19T15:23:15;7.90;;;1.40;;
25503;SDS011;13410;52.114;5.718;2023-09-19T15:25:47;5.90;;;1.40;;
25503;SDS011;13410;52.114;5.718;2023-09-19T15:28:14;4.50;;;1.40;;
25503;SDS011;13410;52.114;5.718;2023-09-19T15:30:40;6.50;;;1.30;;
25503;SDS011;13410;52.114;5.718;2023-09-19T15:33:05;6.88;;;1.40;;
25503;SDS011;13410;52.114;5.718;2023-09-19T15:35:31;3.38;;;1.30;;
25503;SDS011;13410;52.114;5.718;2023-09-19T15:37:56;3.10;;;1.13;;
25503;SDS011;13410;52.114;5.718;2023-09-19T15:40:24;7.50;;;1.42;;
25503;SDS011;13410;52.114;5.718;2023-09-19T15:42:50;5.60;;;1.27;;
25503;SDS011;13410;52.114;5.718;2023-09-19T15:45:15;5.13;;;1.50;;
25503;SDS011;13410;52.114;5.718;2023-09-19T15:47:43;7.90;;;1.55;;
25503;SDS011;13410;52.114;5.718;2023-09-19T15:50:09;3.50;;;1.15;;
25503;SDS011;13410;52.114;5.718;2023-09-19T15:52:38;4.22;;;1.40;;
25503;SDS011;13410;52.114;5.718;2023-09-19T15:55:04;5.53;;;1.58;;
25503;SDS011;13410;52.114;5.718;2023-09-19T15:57:36;3.33;;;1.45;;
25503;SDS011;13410;52.114;5.718;2023-09-19T16:00:02;7.32;;;1.80;;